createdAt,value
2017-11-25T00:00:07.121Z,10.20
2017-11-25T00:02:34.740Z,10.30
2017-11-25T00:05:02.384Z,10.30
2017-11-25T00:07:30.790Z,10.30
2017-11-25T00:09:58.460Z,10.30
2017-11-25T00:12:26.149Z,10.30
2017-11-25T00:14:53.913Z,10.30
2017-11-25T00:17:21.575Z,10.30
2017-11-25T00:19:49.204Z,10.30
2017-11-25T00:22:16.850Z,10.30
2017-11-25T00:24:45.244Z,10.30
2017-11-25T00:27:12.909Z,10.30
2017-11-25T00:29:40.541Z,10.40
2017-11-25T00:32:08.266Z,10.40
2017-11-25T00:34:35.908Z,10.40
2017-11-25T00:37:03.556Z,10.40
2017-11-25T00:39:31.216Z,10.40
2017-11-25T00:41:58.840Z,10.40
2017-11-25T00:44:26.471Z,10.40
2017-11-25T00:46:54.151Z,10.40
2017-11-25T00:49:21.804Z,10.40
2017-11-25T00:51:49.429Z,10.40
2017-11-25T00:54:17.080Z,10.40
2017-11-25T00:56:45.472Z,10.40
2017-11-25T00:59:13.147Z,10.40
2017-11-25T01:01:40.780Z,10.40
2017-11-25T01:04:09.159Z,10.40
2017-11-25T01:06:37.593Z,10.40
2017-11-25T01:09:05.284Z,10.40
2017-11-25T01:11:32.917Z,10.40
2017-11-25T01:14:00.589Z,10.40
2017-11-25T01:16:28.213Z,10.50
2017-11-25T01:18:55.836Z,10.50
2017-11-25T01:21:23.502Z,10.50
2017-11-25T01:23:51.956Z,10.50
2017-11-25T01:26:19.585Z,10.40
2017-11-25T01:28:47.233Z,10.50
2017-11-25T01:31:14.874Z,10.50
2017-11-25T01:33:43.295Z,10.50
2017-11-25T01:36:10.925Z,10.40
2017-11-25T01:38:38.550Z,10.50
2017-11-25T01:41:06.301Z,10.50
2017-11-25T01:43:33.940Z,10.50
2017-11-25T01:46:01.649Z,10.50
2017-11-25T01:48:29.491Z,10.50
2017-11-25T01:50:57.354Z,10.50
2017-11-25T01:53:24.993Z,10.50
2017-11-25T01:55:52.656Z,10.50
2017-11-25T01:58:20.326Z,10.50
2017-11-25T02:00:48.016Z,10.50
2017-11-25T02:03:15.657Z,10.50
2017-11-25T02:05:43.328Z,10.50
2017-11-25T02:08:11.005Z,10.50
2017-11-25T02:10:38.754Z,10.50
2017-11-25T02:13:06.454Z,10.50
2017-11-25T02:15:34.094Z,10.50
2017-11-25T02:18:01.761Z,10.50
2017-11-25T02:20:29.418Z,10.50
2017-11-25T02:22:57.187Z,10.50
2017-11-25T02:25:24.825Z,10.50
2017-11-25T02:27:52.504Z,10.50
2017-11-25T02:30:20.155Z,10.50
2017-11-25T02:32:47.833Z,10.50
2017-11-25T02:35:15.500Z,10.50
2017-11-25T02:37:43.168Z,10.50
2017-11-25T02:40:10.848Z,10.50
2017-11-25T02:42:39.299Z,10.50
2017-11-25T02:45:07.006Z,10.40
2017-11-25T02:47:35.432Z,10.50
2017-11-25T02:50:03.088Z,10.50
2017-11-25T02:52:30.776Z,10.60
2017-11-25T02:54:58.438Z,10.50
2017-11-25T02:57:26.126Z,10.50
2017-11-25T02:59:54.544Z,10.50
2017-11-25T03:02:22.204Z,10.40
2017-11-25T03:04:49.848Z,10.50
2017-11-25T03:07:17.559Z,10.50
2017-11-25T03:09:45.243Z,10.50
2017-11-25T03:12:13.703Z,10.50
2017-11-25T03:14:41.328Z,10.40
2017-11-25T03:17:08.967Z,10.50
2017-11-25T03:19:37.395Z,10.50
2017-11-25T03:22:05.023Z,10.40
2017-11-25T03:24:32.720Z,10.50
2017-11-25T03:27:00.342Z,10.50
2017-11-25T03:29:28.757Z,10.50
2017-11-25T03:31:56.394Z,10.40
2017-11-25T03:34:24.012Z,10.50
2017-11-25T03:36:51.765Z,10.50
2017-11-25T03:39:19.396Z,10.50
2017-11-25T03:41:47.068Z,10.50
2017-11-25T03:44:14.681Z,10.50
2017-11-25T03:46:43.105Z,10.50
2017-11-25T03:49:10.723Z,10.40
2017-11-25T03:51:39.216Z,10.40
2017-11-25T03:54:07.742Z,10.40
2017-11-25T03:56:35.414Z,10.40
2017-11-25T03:59:03.068Z,10.50
2017-11-25T04:01:30.679Z,10.50
2017-11-25T04:03:59.213Z,10.40
2017-11-25T04:06:26.838Z,10.40
2017-11-25T04:08:54.463Z,10.40
2017-11-25T04:11:22.109Z,10.40
2017-11-25T04:13:49.737Z,10.40
2017-11-25T04:16:17.393Z,10.40
2017-11-25T04:18:45.016Z,10.40
2017-11-25T04:21:12.667Z,10.40
2017-11-25T04:23:40.295Z,10.40
2017-11-25T04:26:07.963Z,10.40
2017-11-25T04:28:35.641Z,10.40
2017-11-25T04:31:03.322Z,10.40
2017-11-25T04:33:30.953Z,10.40
2017-11-25T04:35:58.570Z,10.40
2017-11-25T04:38:26.225Z,10.40
2017-11-25T04:40:54.615Z,10.30
2017-11-25T04:43:23.047Z,10.30
2017-11-25T04:45:50.719Z,10.30
2017-11-25T04:48:18.372Z,10.30
2017-11-25T04:50:46.022Z,10.30
2017-11-25T04:53:13.697Z,10.40
2017-11-25T04:55:41.333Z,10.30
2017-11-25T04:58:08.992Z,10.30
2017-11-25T05:00:36.661Z,10.30
2017-11-25T05:03:04.352Z,10.20
2017-11-25T05:05:32.016Z,10.20
2017-11-25T05:07:59.764Z,10.10
2017-11-25T05:10:27.422Z,10.20
2017-11-25T05:12:55.079Z,10.20
2017-11-25T05:15:22.727Z,10.20
2017-11-25T05:17:50.414Z,10.20
2017-11-25T05:20:18.080Z,10.20
2017-11-25T05:22:45.736Z,10.20
2017-11-25T05:25:13.377Z,10.20
2017-11-25T05:27:41.090Z,10.20
2017-11-25T05:30:08.741Z,10.20
2017-11-25T05:32:37.188Z,10.20
2017-11-25T05:35:04.809Z,10.20
2017-11-25T05:37:33.243Z,10.20
2017-11-25T05:40:01.044Z,10.20
2017-11-25T05:42:28.678Z,10.20
2017-11-25T05:44:56.460Z,10.20
2017-11-25T05:47:24.229Z,10.20
2017-11-25T05:49:51.866Z,10.30
2017-11-25T05:52:19.496Z,10.30
2017-11-25T05:54:47.209Z,10.30
2017-11-25T05:57:15.026Z,10.30
2017-11-25T05:59:42.666Z,10.30
2017-11-25T06:02:11.065Z,10.30
2017-11-25T06:04:38.765Z,10.30
2017-11-25T06:07:06.374Z,10.30
2017-11-25T06:09:34.923Z,10.30
2017-11-25T06:12:02.554Z,10.30
2017-11-25T06:14:30.181Z,10.30
2017-11-25T06:16:58.597Z,10.30
2017-11-25T06:19:26.213Z,10.30
2017-11-25T06:21:54.633Z,10.40
2017-11-25T06:24:22.330Z,10.30
2017-11-25T06:26:50.019Z,10.40
2017-11-25T06:29:18.413Z,10.30
2017-11-25T06:31:46.802Z,10.30
2017-11-25T06:34:14.446Z,10.30
2017-11-25T06:36:42.830Z,10.30
2017-11-25T06:39:11.256Z,10.30
2017-11-25T06:41:38.896Z,10.30
2017-11-25T06:44:06.685Z,10.30
2017-11-25T06:46:34.323Z,10.30
2017-11-25T06:49:01.980Z,10.30
2017-11-25T06:51:29.600Z,10.30
2017-11-25T06:53:57.235Z,10.30
2017-11-25T06:56:24.899Z,10.30
2017-11-25T06:58:52.518Z,10.30
2017-11-25T07:01:20.187Z,10.30
2017-11-25T07:03:47.816Z,10.30
2017-11-25T07:06:16.255Z,10.20
2017-11-25T07:08:43.872Z,10.10
2017-11-25T07:11:12.298Z,10.10
2017-11-25T07:13:39.925Z,10.10
2017-11-25T07:16:07.582Z,10.10
2017-11-25T07:18:35.970Z,10.10
2017-11-25T07:21:03.784Z,10.00
2017-11-25T07:23:31.447Z,10.10
2017-11-25T07:25:59.078Z,10.00
2017-11-25T07:28:26.876Z,10.00
2017-11-25T07:30:54.504Z,10.00
2017-11-25T07:33:22.212Z,10.00
2017-11-25T07:35:50.614Z,10.00
2017-11-25T07:38:19.165Z,10.00
2017-11-25T07:40:46.818Z,10.00
2017-11-25T07:43:14.461Z,10.00
2017-11-25T07:45:42.157Z,10.00
2017-11-25T07:48:09.800Z,10.00
2017-11-25T07:50:37.576Z,10.00
2017-11-25T07:53:05.256Z,10.00
2017-11-25T07:55:32.941Z,10.10
2017-11-25T07:58:01.328Z,10.10
2017-11-25T08:00:29.764Z,10.10
2017-11-25T08:02:57.417Z,10.10
2017-11-25T08:05:25.088Z,10.10
2017-11-25T08:07:52.752Z,10.10
2017-11-25T08:10:20.377Z,10.20
2017-11-25T08:12:48.032Z,10.20
2017-11-25T08:15:15.726Z,10.10
2017-11-25T08:17:43.385Z,10.10
2017-11-25T08:20:11.041Z,10.10
2017-11-25T08:22:38.806Z,10.00
2017-11-25T08:25:06.696Z,10.00
2017-11-25T08:27:34.348Z,10.00
2017-11-25T08:30:02.040Z,10.00
2017-11-25T08:32:29.699Z,9.90
2017-11-25T08:34:57.435Z,9.90
2017-11-25T08:37:25.050Z,10.00
2017-11-25T08:39:53.589Z,10.10
2017-11-25T08:42:21.247Z,10.00
2017-11-25T08:44:48.920Z,10.10
2017-11-25T08:47:16.615Z,10.10
2017-11-25T08:49:44.292Z,10.20
2017-11-25T08:52:11.919Z,10.20
2017-11-25T08:54:39.568Z,10.20
2017-11-25T08:57:07.204Z,10.20
2017-11-25T08:59:34.851Z,10.20
2017-11-25T09:02:02.509Z,10.20
2017-11-25T09:04:30.166Z,10.20
2017-11-25T09:06:57.837Z,10.20
2017-11-25T09:09:25.640Z,10.30
2017-11-25T09:11:53.286Z,10.30
2017-11-25T09:14:20.908Z,10.30
2017-11-25T09:16:48.561Z,10.30
2017-11-25T09:19:17.002Z,10.40
2017-11-25T09:21:44.778Z,10.30
2017-11-25T09:24:12.404Z,10.40
2017-11-25T09:26:40.068Z,10.40
2017-11-25T09:29:07.693Z,10.40
2017-11-25T09:31:36.099Z,10.40
2017-11-25T09:34:03.776Z,10.30
2017-11-25T09:36:31.430Z,10.40
2017-11-25T09:38:59.085Z,10.30
2017-11-25T09:41:26.769Z,10.30
2017-11-25T09:43:54.548Z,10.40
2017-11-25T09:46:22.209Z,10.40
2017-11-25T09:48:49.860Z,10.30
2017-11-25T09:51:17.503Z,10.30
2017-11-25T09:53:45.181Z,10.30
2017-11-25T09:56:12.829Z,10.30
2017-11-25T09:58:40.493Z,10.30
2017-11-25T10:01:08.113Z,10.30
2017-11-25T10:03:36.550Z,10.40
2017-11-25T10:06:04.382Z,10.30
2017-11-25T10:08:32.802Z,10.40
2017-11-25T10:11:00.479Z,10.30
2017-11-25T10:13:28.240Z,10.40
2017-11-25T10:15:55.885Z,10.40
2017-11-25T10:18:23.548Z,10.40
2017-11-25T10:20:51.197Z,10.40
2017-11-25T10:23:18.846Z,10.40
2017-11-25T10:25:47.473Z,10.30
2017-11-25T10:28:15.099Z,10.30
2017-11-25T10:30:42.761Z,10.30
2017-11-25T10:33:10.396Z,10.30
2017-11-25T10:35:38.839Z,10.40
2017-11-25T10:38:06.503Z,10.30
2017-11-25T10:40:34.579Z,10.40
2017-11-25T10:43:02.326Z,10.40
2017-11-25T10:45:30.198Z,10.40
2017-11-25T10:47:58.079Z,10.50
2017-11-25T10:50:25.883Z,10.50
2017-11-25T10:52:53.707Z,10.50
2017-11-25T10:55:21.465Z,10.60
2017-11-25T10:57:49.261Z,10.60
2017-11-25T11:00:17.806Z,10.60
2017-11-25T11:02:45.583Z,10.60
2017-11-25T11:05:13.325Z,10.70
2017-11-25T11:07:41.036Z,10.70
2017-11-25T11:10:09.521Z,10.70
2017-11-25T11:12:38.107Z,10.70
2017-11-25T11:15:06.586Z,10.70
2017-11-25T11:17:35.147Z,10.80
2017-11-25T11:20:02.860Z,10.70
2017-11-25T11:22:30.691Z,10.80
2017-11-25T11:24:59.114Z,10.80
2017-11-25T11:27:26.911Z,10.70
2017-11-25T11:29:54.617Z,10.80
2017-11-25T11:32:23.071Z,10.80
2017-11-25T11:34:51.031Z,10.70
2017-11-25T11:37:18.779Z,10.80
2017-11-25T11:39:46.752Z,10.70
2017-11-25T11:42:14.616Z,10.70
2017-11-25T11:44:42.495Z,10.70
2017-11-25T11:47:10.270Z,10.70
2017-11-25T11:49:38.094Z,10.70
2017-11-25T11:52:06.004Z,10.70
2017-11-25T11:54:34.384Z,10.80
2017-11-25T11:57:02.353Z,10.80
2017-11-25T11:59:30.112Z,10.80
2017-11-25T12:01:57.984Z,10.80
2017-11-25T12:04:25.746Z,10.80
2017-11-25T12:06:53.613Z,10.80
2017-11-25T12:09:21.379Z,10.80
2017-11-25T12:11:49.175Z,10.80
2017-11-25T12:14:17.634Z,10.80
2017-11-25T12:16:45.500Z,10.70
2017-11-25T12:19:13.212Z,10.80
2017-11-25T12:21:41.007Z,10.70
2017-11-25T12:24:08.835Z,10.70
2017-11-25T12:26:36.571Z,10.70
2017-11-25T12:29:04.316Z,10.70
2017-11-25T12:31:32.194Z,10.70
2017-11-25T12:34:00.053Z,10.70
2017-11-25T12:36:28.016Z,10.70
2017-11-25T12:38:55.893Z,10.70
2017-11-25T12:41:23.826Z,10.70
2017-11-25T12:43:51.543Z,10.70
2017-11-25T12:46:20.132Z,10.70
2017-11-25T12:48:48.674Z,10.70
2017-11-25T12:51:16.642Z,10.70
2017-11-25T12:53:44.516Z,10.70
2017-11-25T12:56:12.379Z,10.70
2017-11-25T12:58:40.155Z,10.70
2017-11-25T13:01:07.933Z,10.70
2017-11-25T13:03:36.410Z,10.70
2017-11-25T13:06:04.249Z,10.70
2017-11-25T13:08:31.978Z,10.80
2017-11-25T13:10:59.798Z,10.80
2017-11-25T13:13:27.672Z,10.80
2017-11-25T13:15:55.396Z,10.80
2017-11-25T13:18:23.069Z,10.80
2017-11-25T13:20:50.854Z,10.80
2017-11-25T13:23:18.715Z,10.80
2017-11-25T13:25:46.581Z,10.80
2017-11-25T13:28:14.354Z,10.80
2017-11-25T13:30:42.112Z,10.80
2017-11-25T13:33:09.869Z,10.80
2017-11-25T13:35:37.596Z,10.80
2017-11-25T13:38:05.395Z,10.80
2017-11-25T13:40:33.278Z,10.80
2017-11-25T13:43:01.134Z,10.80
2017-11-25T13:45:28.909Z,10.80
2017-11-25T13:47:56.687Z,10.80
2017-11-25T13:50:24.462Z,10.80
2017-11-25T13:52:52.245Z,10.80
2017-11-25T13:55:20.712Z,10.80
2017-11-25T13:57:49.195Z,10.80
2017-11-25T14:00:17.861Z,10.80
2017-11-25T14:02:45.706Z,10.70
2017-11-25T14:05:13.492Z,10.80
2017-11-25T14:07:42.977Z,10.70
2017-11-25T14:10:10.786Z,10.70
2017-11-25T14:12:39.368Z,10.70
2017-11-25T14:15:08.032Z,10.70
2017-11-25T14:17:35.788Z,10.70
2017-11-25T14:20:03.682Z,10.70
2017-11-25T14:22:32.331Z,10.70
2017-11-25T14:24:59.991Z,10.60
2017-11-25T14:27:27.807Z,10.70
2017-11-25T14:29:56.445Z,10.60
2017-11-25T14:32:24.309Z,10.60
2017-11-25T14:34:52.112Z,10.60
2017-11-25T14:37:20.368Z,10.60
2017-11-25T14:39:48.239Z,10.60
2017-11-25T14:42:16.085Z,10.60
2017-11-25T14:44:45.941Z,10.60
2017-11-25T14:47:13.884Z,10.60
2017-11-25T14:49:41.632Z,10.50
2017-11-25T14:52:09.319Z,10.50
2017-11-25T14:54:37.171Z,10.50
2017-11-25T14:57:05.041Z,10.50
2017-11-25T14:59:32.829Z,10.40
2017-11-25T15:02:00.533Z,10.40
2017-11-25T15:04:28.427Z,10.40
2017-11-25T15:06:56.127Z,10.40
2017-11-25T15:09:24.777Z,10.40
2017-11-25T15:11:52.568Z,10.30
2017-11-25T15:14:21.262Z,10.30
2017-11-25T15:16:49.099Z,10.30
2017-11-25T15:19:16.963Z,10.30
2017-11-25T15:21:44.830Z,10.30
2017-11-25T15:24:12.499Z,10.20
2017-11-25T15:26:40.270Z,10.20
2017-11-25T15:29:08.032Z,10.20
2017-11-25T15:31:35.711Z,10.20
2017-11-25T15:34:03.573Z,10.20
2017-11-25T15:36:31.362Z,10.10
2017-11-25T15:38:59.908Z,10.10
2017-11-25T15:41:27.884Z,10.00
2017-11-25T15:43:55.853Z,10.00
2017-11-25T15:46:23.812Z,10.00
2017-11-25T15:48:51.579Z,10.00
2017-11-25T15:51:19.448Z,10.00
2017-11-25T15:53:47.316Z,9.90
2017-11-25T15:56:15.188Z,9.90
2017-11-25T15:58:42.923Z,9.90
2017-11-25T16:01:10.804Z,9.90
2017-11-25T16:03:38.592Z,9.90
2017-11-25T16:06:06.265Z,9.80
2017-11-25T16:08:34.026Z,9.80
2017-11-25T16:11:01.862Z,9.80
2017-11-25T16:13:29.748Z,9.80
2017-11-25T16:15:57.515Z,9.80
2017-11-25T16:18:26.110Z,9.70
2017-11-25T16:20:53.801Z,9.70
2017-11-25T16:23:21.608Z,9.70
2017-11-25T16:25:49.479Z,9.70
2017-11-25T16:28:17.444Z,9.70
2017-11-25T16:30:45.234Z,9.60
2017-11-25T16:33:14.554Z,9.50
2017-11-25T16:35:43.202Z,9.50
2017-11-25T16:38:11.081Z,9.50
2017-11-25T16:40:38.748Z,9.50
2017-11-25T16:43:06.516Z,9.50
2017-11-25T16:45:34.368Z,9.50
2017-11-25T16:48:15.028Z,9.40
2017-11-25T16:50:42.796Z,9.40
2017-11-25T16:53:10.577Z,9.40
2017-11-25T16:55:39.056Z,9.30
2017-11-25T16:58:06.693Z,9.30
2017-11-25T17:00:34.463Z,9.30
2017-11-25T17:03:02.145Z,9.30
2017-11-25T17:05:30.709Z,9.20
2017-11-25T17:07:58.372Z,9.20
2017-11-25T17:10:26.255Z,9.20
2017-11-25T17:12:54.140Z,9.20
2017-11-25T17:15:22.716Z,9.10
2017-11-25T17:17:52.094Z,9.10
2017-11-25T17:20:20.083Z,9.10
2017-11-25T17:22:47.836Z,9.10
2017-11-25T17:25:15.719Z,9.10
2017-11-25T17:27:43.436Z,9.10
2017-11-25T17:30:11.239Z,9.10
2017-11-25T17:32:38.900Z,9.10
2017-11-25T17:35:06.678Z,9.10
2017-11-25T17:37:34.522Z,9.00
2017-11-25T17:40:02.398Z,9.10
2017-11-25T17:42:30.389Z,9.00
2017-11-25T17:44:58.864Z,9.00
2017-11-25T17:47:26.751Z,8.90
2017-11-25T17:49:55.335Z,9.00
2017-11-25T17:52:24.327Z,8.90
2017-11-25T17:54:52.888Z,8.90
2017-11-25T17:57:20.850Z,8.90
2017-11-25T17:59:48.616Z,8.90
2017-11-25T18:02:16.376Z,8.90
2017-11-25T18:04:44.195Z,8.80
2017-11-25T18:07:12.214Z,8.80
2017-11-25T18:09:40.055Z,8.80
2017-11-25T18:12:08.060Z,8.70
2017-11-25T18:14:35.747Z,8.70
2017-11-25T18:17:04.296Z,8.60
2017-11-25T18:19:32.078Z,8.50
2017-11-25T18:21:59.866Z,8.60
2017-11-25T18:24:28.336Z,8.50
2017-11-25T18:26:56.775Z,8.50
2017-11-25T18:29:24.765Z,8.50
2017-11-25T18:31:54.048Z,8.40
2017-11-25T18:34:21.926Z,8.40
2017-11-25T18:36:49.809Z,8.40
2017-11-25T18:39:17.724Z,8.40
2017-11-25T18:41:45.357Z,8.30
2017-11-25T18:44:13.835Z,8.30
2017-11-25T18:46:42.584Z,8.30
2017-11-25T18:49:10.373Z,8.20
2017-11-25T18:51:38.063Z,8.20
2017-11-25T18:54:06.591Z,8.20
2017-11-25T18:56:34.369Z,8.10
2017-11-25T18:59:02.247Z,8.10
2017-11-25T19:01:30.217Z,8.10
2017-11-25T19:03:58.081Z,8.10
2017-11-25T19:06:26.667Z,8.10
2017-11-25T19:08:55.347Z,8.10
2017-11-25T19:11:23.327Z,8.10
2017-11-25T19:13:51.293Z,8.10
2017-11-25T19:16:19.255Z,8.10
2017-11-25T19:18:47.221Z,8.10
2017-11-25T19:21:15.099Z,8.10
2017-11-25T19:23:44.601Z,8.00
2017-11-25T19:26:13.284Z,8.00
2017-11-25T19:31:03.301Z,8.00
2017-11-25T19:33:31.214Z,8.00
2017-11-25T19:35:59.086Z,7.90
2017-11-25T19:38:26.940Z,8.00
2017-11-25T19:40:54.919Z,7.90
2017-11-25T19:43:22.783Z,7.90
2017-11-25T19:45:50.645Z,7.90
2017-11-25T19:48:18.535Z,7.90
2017-11-25T19:50:47.210Z,7.90
2017-11-25T19:53:15.069Z,7.90
2017-11-25T19:55:42.661Z,7.90
2017-11-25T19:58:11.048Z,7.90
2017-11-25T20:00:39.405Z,7.90
2017-11-25T20:03:07.022Z,7.80
2017-11-25T20:05:34.615Z,7.90
2017-11-25T20:08:02.234Z,7.90
2017-11-25T20:10:29.827Z,7.80
2017-11-25T20:12:57.458Z,7.80
2017-11-25T20:15:25.054Z,7.80
2017-11-25T20:17:52.706Z,7.90
2017-11-25T20:20:20.302Z,7.90
2017-11-25T20:22:48.958Z,7.90
2017-11-25T20:25:16.560Z,7.80
2017-11-25T20:27:44.184Z,7.80
2017-11-25T20:30:11.771Z,7.80
2017-11-25T20:32:40.314Z,7.80
2017-11-25T20:35:07.940Z,7.70
2017-11-25T20:37:35.633Z,7.80
2017-11-25T20:40:03.610Z,7.70
2017-11-25T20:42:31.208Z,7.70
2017-11-25T20:44:59.812Z,7.70
2017-11-25T20:47:27.409Z,7.60
2017-11-25T20:49:55.038Z,7.70
2017-11-25T20:52:22.648Z,7.70
2017-11-25T20:54:50.272Z,7.70
2017-11-25T20:57:17.867Z,7.60
2017-11-25T20:59:45.480Z,7.60
2017-11-25T21:02:13.066Z,7.60
2017-11-25T21:04:40.947Z,7.60
2017-11-25T21:07:08.711Z,7.60
2017-11-25T21:09:36.351Z,7.60
2017-11-25T21:12:03.966Z,7.60
2017-11-25T21:14:32.332Z,7.60
2017-11-25T21:16:59.946Z,7.50
2017-11-25T21:19:27.547Z,7.50
2017-11-25T21:21:56.818Z,7.50
2017-11-25T21:24:24.447Z,7.50
2017-11-25T21:26:52.071Z,7.50
2017-11-25T21:29:19.671Z,7.50
2017-11-25T21:31:47.321Z,7.50
2017-11-25T21:34:15.770Z,7.50
2017-11-25T21:36:43.367Z,7.50
2017-11-25T21:39:10.985Z,7.50
2017-11-25T21:41:38.577Z,7.40
2017-11-25T21:44:06.973Z,7.40
2017-11-25T21:46:34.889Z,7.30
2017-11-25T21:49:02.851Z,7.40
2017-11-25T21:51:30.726Z,7.40
2017-11-25T21:53:58.348Z,7.30
2017-11-25T21:56:25.940Z,7.30
2017-11-25T21:58:53.568Z,7.30
2017-11-25T22:01:23.799Z,7.30
2017-11-25T22:03:52.380Z,7.30
2017-11-25T22:06:19.973Z,7.20
2017-11-25T22:08:47.570Z,7.30
2017-11-25T22:11:15.223Z,7.30
2017-11-25T22:13:43.586Z,7.30
2017-11-25T22:16:11.976Z,7.30
2017-11-25T22:18:40.336Z,7.30
2017-11-25T22:21:08.037Z,7.20
2017-11-25T22:23:35.683Z,7.20
2017-11-25T22:26:04.217Z,7.30
2017-11-25T22:28:31.883Z,7.20
2017-11-25T22:30:59.549Z,7.30
2017-11-25T22:33:27.138Z,7.30
2017-11-25T22:35:54.774Z,7.30
2017-11-25T22:38:22.381Z,7.30
2017-11-25T22:40:50.759Z,7.40
2017-11-25T22:43:19.138Z,7.40
2017-11-25T22:45:47.497Z,7.40
2017-11-25T22:48:15.886Z,7.40
2017-11-25T22:50:44.298Z,7.30
2017-11-25T22:53:11.927Z,7.30
2017-11-25T22:55:40.306Z,7.30
2017-11-25T22:58:08.686Z,7.30
2017-11-25T23:00:37.053Z,7.20
2017-11-25T23:03:04.685Z,7.20
2017-11-25T23:08:33.934Z,7.20
2017-11-25T23:11:01.532Z,7.10
2017-11-25T23:13:29.154Z,7.20
2017-11-25T23:15:56.753Z,7.20
2017-11-25T23:18:24.350Z,7.20
2017-11-25T23:20:51.970Z,7.20
2017-11-25T23:23:19.562Z,7.20
2017-11-25T23:25:47.189Z,7.20
2017-11-25T23:28:14.799Z,7.20
2017-11-25T23:30:42.421Z,7.20
2017-11-25T23:33:10.026Z,7.20
2017-11-25T23:35:37.653Z,7.20
2017-11-25T23:38:05.252Z,7.10
2017-11-25T23:40:32.847Z,7.10
2017-11-25T23:43:01.226Z,7.10
2017-11-25T23:45:28.813Z,7.00
2017-11-25T23:47:56.457Z,7.10
2017-11-25T23:50:24.147Z,7.10
2017-11-25T23:52:51.738Z,7.10
2017-11-25T23:55:19.361Z,7.10
2017-11-25T23:57:46.958Z,7.10
